Detalii statie ERDEI ROBERT [00001D0F]

Toti senzorii

Date Temperatura solului [C]Precipitatii [mm]Voltaj baterie [mV]Leaf Wetness [Min]HC Air temperature [C]HC Relative humidity [%]Punctul de roua [C]
medieminmaxsumaultimatimpmedieminmaxmediemediemin
2020-06-02 06:00:00 0 6668 9.44 8.49 10.2 0 0 0
2020-06-02 07:00:00 0 6766 9.42 8.4 10.43 0 0 0
2020-06-02 08:00:00 0 7040 11.43 10.46 12.89 0 0 0
2020-06-02 09:00:00 0 7166 14.26 12.57 15.73 0 0 0
2020-06-02 10:00:00 0 7158 16.84 15.79 18.18 0 0 0
2020-06-02 11:00:00 0 7166 19.54 18.79 20.6 0 0 0
2020-06-02 12:00:00 0 7138 18.24 16.8 20.21 0 0 0
2020-06-02 13:00:00 0 7158 16.78 16.34 17.66 0 0 0
2020-06-02 14:00:00 0 7138 17.76 17.05 18.53 0 0 0
2020-06-02 15:00:00 0 7158 18.99 17.67 21.64 0 0 0
2020-06-02 16:00:00 0 7148 18.8 17.64 20.02 0 0 0
2020-06-02 17:00:00 0 7138 19.35 18 21.57 0 0 0
2020-06-02 18:00:00 0 6894 19.28 18.67 20.14 0 0 0
2020-06-02 19:00:00 0 7118 20.08 18.94 20.71 0 0 0
2020-06-02 20:00:00 0 6806 19.36 18.67 20.44 0 0 0
2020-06-02 21:00:00 0 6756 18.35 16.13 19.35 0 0 0
2020-06-02 22:00:00 0 6698 13.82 12.63 15.74 0 0 0
2020-06-02 23:00:00 0 6698 11.95 11.12 13.32 0 0 0
2020-06-03 00:00:00 0 6688 10.29 9.04 11.2 0 0 0
2020-06-03 01:00:00 0 6668 8.34 7.65 9.2 0 0 0
2020-06-03 02:00:00 0 6660 7.22 6.73 7.98 0 0 0
2020-06-03 03:00:00 0 6660 6.3 5.64 6.69 0 0 0
2020-06-03 04:00:00 0 6660 5.67 5.19 6.18 0 0 0
2020-06-03 05:00:00 0 6660 5.5 5.3 5.67 0 0 0
2020-06-03 06:00:00 0 6660 6.31 5.72 7.02 0 0 0
2020-06-03 07:00:00 0 6668 7.59 7.09 8.18 0 0 0
2020-06-03 08:00:00 0 6914 9.76 8.26 10.95 0 0 0
2020-06-03 09:00:00 0 7166 12.83 10.58 14.64 0 0 0
2020-06-03 10:00:00 0 6914 15.64 14.54 16.81 0 0 0
2020-06-03 11:00:00 0 7138 16.89 14.7 19.29 0 0 0
2020-06-03 12:00:00 0 7158 17.14 16.13 20 0 0 0
2020-06-03 13:00:00 0 7158 20.59 18.82 22.2 0 0 0
2020-06-03 14:00:00 0.8 7128 19.26 12.12 24.36 0 0 0
2020-06-03 15:00:00 4.2 7166 17.21 13 19.8 0 0 0
2020-06-03 16:00:00 2.8 6826 18.53 15.27 20.09 0 0 0
2020-06-03 17:00:00 1 6932 18.49 15.58 20.81 0 0 0
2020-06-03 18:00:00 0 6826 20.02 19.45 20.45 0 0 0
2020-06-03 19:00:00 0 6776 19.38 18.69 19.95 0 0 0
2020-06-03 20:00:00 0 6806 17.53 16.37 18.55 0 0 0
2020-06-03 21:00:00 0 6718 15.76 15.06 16.23 0 0 0
2020-06-03 22:00:00 0 6698 14.07 13.59 14.84 0 0 0
2020-06-03 23:00:00 0 6688 12.62 11.95 13.39 0 0 0
2020-06-04 00:00:00 0 6678 11.34 10.92 12.01 0 0 0
2020-06-04 01:00:00 0 6668 10.46 9.97 10.91 0 0 0
2020-06-04 02:00:00 0 6668 10.04 9.62 10.46 0 0 0
2020-06-04 03:00:00 0 6668 10.47 10.28 10.71 0 0 0
2020-06-04 04:00:00 0 6678 10.53 10.34 10.74 0 0 0
2020-06-04 05:00:00 0 6668 10.66 10.55 10.75 0 0 0